Werkendam, Netherlands
Current Conditions -  °F | °C
As of 6:25 PM on Thursday 30 Oct 2014 (Local Time) from EHGR Reporting Station
Haze Haze  
Wind Chill: 59°   Ceiling: 13000
Heat Index: 59°   Visibility: 5mi
Dew Point: 57°   Wind: 7mph
Humidity: 94%   Direction: 170°S
Pressure: 30.15"   Gusts: NA
Location:  51.81°N, 4.89°E
Report Text: EHGR 301725Z AUTO 17006KT 8000 BR SCT098 BKN130 15/14 Q1021 BLU
Loading
Personal Weather Stations






























Interactive Weather Map
Tropical Storm Tracking
New forecast layout! Learn more

10-Day Weather Forecast

Advertisements
Track Severe Weather on mobile